Weather History for Monroe, WI

Change the Weather History Date:

Wednesday, February 26, 2014

  Actual Average Record
Temperature  
Mean Temperature 5 °F -  
Max Temperature 16 °F 0 °F 59 °F (1998)
Min Temperature -6 °F - -6 °F (2014)
Degree Days  
Heating Degree Days 60    
Moisture  
Dew Point -6 °F    
Average Humidity 62    
Maximum Humidity 74    
Minimum Humidity 48    
Precipitation  
Precipitation 0.00 in - - ()
Sea Level Pressure  
Sea Level Pressure 29.94 in    
Wind  
Wind Speed 16 mph (WSW)    
Max Wind Speed 31 mph    
Max Gust Speed 38 mph    
Visibility 10 miles    
Events      
Averages and records for this station are not official NWS values.
T = Trace of Precipitation, MM = Missing Value Source: NWS Daily Summary

Daily Weather History Graph

Daily Weather History Graph

Search for Another Location

Airport:

Trip Planner

Search our weather history database for the weather conditions in past years. The results will help you decide how hot, cold, wet, or windy it might be!

Date:

Astronomy

Feb. 26, 2014 Rise Set
Actual Time 6:38 AM CST 5:44 PM CST
Civil Twilight 6:10 AM CST 6:12 PM CST
Nautical Twilight 5:37 AM CST 6:45 PM CST
Astronomical Twilight 5:05 AM CST 7:18 PM CST
Moon 4:27 AM CST (2/26) 2:56 PM CST (2/26)
Length of Visible Light 12h 02m
Length of Day
11h 05m
Waning Crescent, 10% of the Moon is Illuminated
Feb 26
Waning Crescent
Mar 1
New
Mar 8
First Quarter
Mar 16
Full
Mar 23
Last Quarter

Hourly Weather History & Observations

Time (CST) Temp. Windchill Dew Point Humidity Pressure Visibility Wind Dir Wind Speed Gust Speed Precip Events Conditions
12:15 AM -0.0 °F -16.3 °F -8.5 °F 68% 30.21 in 10.0 mi WNW 10.4 mph - N/A   Clear
12:35 AM -0.6 °F -18.6 °F -8.5 °F 69% 30.21 in 10.0 mi WNW 12.7 mph - N/A   Clear
12:55 AM -0.8 °F -18.0 °F -8.5 °F 70% 30.21 in 10.0 mi West 11.5 mph - N/A   Clear
1:15 AM -0.9 °F -19.9 °F -8.5 °F 70% 30.22 in 10.0 mi West 13.8 mph - N/A   Clear
1:35 AM -1.5 °F -19.0 °F -8.7 °F 71% 30.21 in 10.0 mi West 11.5 mph - N/A   Clear
1:55 AM -2.0 °F -19.6 °F -9.2 °F 71% 30.22 in 10.0 mi West 11.5 mph - N/A   Clear
2:15 AM -2.4 °F -20.9 °F -9.4 °F 72% 30.21 in 10.0 mi West 12.7 mph - N/A   Clear
2:35 AM -2.9 °F -21.6 °F -9.4 °F 74% 30.20 in 10.0 mi West 12.7 mph - N/A   Clear
2:55 AM -3.1 °F -21.0 °F -9.6 °F 74% 30.19 in 10.0 mi West 11.5 mph - N/A   Clear
3:15 AM -3.3 °F -20.3 °F -9.9 °F 73% 30.19 in 10.0 mi West 10.4 mph - N/A   Clear
3:35 AM -3.6 °F -20.7 °F -10.3 °F 73% 30.19 in 10.0 mi West 10.4 mph - N/A   Clear
3:55 AM -4.2 °F -23.2 °F -10.7 °F 74% 30.19 in 10.0 mi West 12.7 mph - N/A   Clear
4:15 AM -4.5 °F -23.6 °F -11.2 °F 73% 30.19 in 10.0 mi West 12.7 mph - N/A   Clear
4:35 AM -5.1 °F -24.3 °F -11.7 °F 73% 30.19 in 10.0 mi West 12.7 mph - N/A   Clear
4:55 AM -5.3 °F -23.7 °F -12.1 °F 72% 30.17 in 10.0 mi West 11.5 mph - N/A   Clear
5:15 AM -5.8 °F -25.2 °F -12.3 °F 74% 30.17 in 10.0 mi West 12.7 mph - N/A   Clear
5:35 AM -6.2 °F -25.7 °F -12.5 °F 74% 30.17 in 10.0 mi WSW 12.7 mph - N/A   Clear
5:55 AM -6.2 °F -26.5 °F -13.0 °F 72% 30.16 in 10.0 mi WSW 13.8 mph - N/A   Clear
6:15 AM -6.7 °F -26.4 °F -13.2 °F 73% 30.15 in 10.0 mi WSW 12.7 mph - N/A   Clear
6:35 AM -6.7 °F -27.2 °F -13.4 °F 73% 30.16 in 10.0 mi WSW 13.8 mph - N/A   Clear
6:55 AM -6.7 °F -24.5 °F -13.5 °F 72% 30.16 in 10.0 mi WSW 10.4 mph - N/A   Clear
7:15 AM -6.7 °F -28.7 °F -13.9 °F 71% 30.16 in 10.0 mi WSW 16.1 mph - N/A   Clear
7:35 AM -6.2 °F -26.5 °F -13.9 °F 69% 30.15 in 10.0 mi WSW 13.8 mph - N/A   Clear
7:55 AM -5.8 °F -26.8 °F -13.9 °F 68% 30.14 in 10.0 mi WSW 15.0 mph - N/A   Clear
8:20 AM -5.3 °F -26.1 °F -14.1 °F 66% 30.14 in 10.0 mi West 15.0 mph - N/A   Clear
8:35 AM -4.2 °F -23.2 °F -13.5 °F 64% 30.13 in 10.0 mi West 12.7 mph - N/A   Clear
8:55 AM -3.3 °F -19.3 °F -13.9 °F 60% 30.11 in 10.0 mi West 9.2 mph - N/A   Clear
9:15 AM -2.2 °F -15.6 °F -14.3 °F 57% 30.11 in 10.0 mi WSW 6.9 mph - N/A   Clear
9:35 AM -0.4 °F -14.7 °F -13.7 °F 53% 30.09 in 10.0 mi SW 8.1 mph - N/A   Clear
9:55 AM 0.5 °F -14.6 °F -12.6 °F 54% 30.08 in 10.0 mi SW 9.2 mph - N/A   Clear
10:15 AM 1.4 °F -16.1 °F -12.6 °F 52% 30.07 in 10.0 mi SSW 12.7 mph - N/A   Clear
10:35 AM 1.9 °F -15.5 °F -11.4 °F 54% 30.06 in 10.0 mi SW 12.7 mph - N/A   Clear
10:55 AM 3.0 °F -16.1 °F -11.0 °F 52% 30.05 in 10.0 mi SW 16.1 mph 19.6 mph N/A   Clear
11:15 AM 3.4 °F -15.7 °F -10.1 °F 54% 30.04 in 10.0 mi SW 16.1 mph 20.7 mph N/A   Clear
11:40 AM 4.5 °F -16.9 °F -8.9 °F 54% 30.03 in 10.0 mi SW 21.9 mph 26.5 mph N/A   Scattered Clouds
11:55 AM 4.6 °F -15.7 °F -10.3 °F 50% 30.01 in 10.0 mi SW 19.6 mph 28.8 mph N/A   Scattered Clouds
12:15 PM 5.4 °F -15.7 °F -9.2 °F 51% 30.00 in 10.0 mi SW 21.9 mph 26.5 mph N/A   Clear
12:35 PM 6.3 °F -13.6 °F -8.7 °F 50% 29.97 in 10.0 mi SW 19.6 mph 28.8 mph N/A   Clear
12:55 PM 6.1 °F -14.8 °F -9.0 °F 50% 29.95 in 10.0 mi SW 21.9 mph 29.9 mph N/A   Clear
1:15 PM 7.2 °F -14.2 °F -8.5 °F 49% 29.93 in 10.0 mi SW 24.2 mph 28.8 mph N/A   Clear
1:35 PM 7.7 °F -11.2 °F -8.3 °F 48% 29.90 in 10.0 mi SSW 18.4 mph 28.8 mph N/A   Clear
1:55 PM 7.7 °F -12.2 °F -6.7 °F 52% 29.88 in 10.0 mi SW 20.7 mph 33.4 mph N/A   Clear
2:15 PM 8.4 °F -12.5 °F -6.5 °F 51% 29.86 in 10.0 mi SW 24.2 mph 34.5 mph N/A   Scattered Clouds
2:35 PM 8.6 °F -13.1 °F -6.5 °F 50% 29.84 in 10.0 mi SW 26.5 mph 36.8 mph N/A   Scattered Clouds
2:55 PM 9.3 °F -13.5 °F -5.6 °F 51% 29.82 in 10.0 mi SW 31.1 mph 36.8 mph N/A   Scattered Clouds
3:15 PM 9.1 °F -13.4 °F -6.3 °F 50% 29.80 in 10.0 mi SW 29.9 mph 36.8 mph N/A   Scattered Clouds
3:35 PM 9.5 °F -11.9 °F -5.3 °F 51% 29.80 in 10.0 mi SW 26.5 mph 34.5 mph N/A   Scattered Clouds
3:55 PM 9.9 °F -11.4 °F -4.2 °F 53% 29.78 in 10.0 mi SW 26.5 mph 35.7 mph N/A   Mostly Cloudy
4:15 PM 10.0 °F -11.1 °F -3.3 °F 55% 29.75 in 10.0 mi SW 26.5 mph 31.1 mph N/A   Mostly Cloudy
4:35 PM 10.4 °F -9.9 °F -3.1 °F 55% 29.74 in 10.0 mi SW 24.2 mph 31.1 mph N/A   Mostly Cloudy
4:55 PM 10.4 °F -10.7 °F -2.4 °F 56% 29.71 in 10.0 mi SW 26.5 mph 31.1 mph N/A   Mostly Cloudy
5:15 PM 10.4 °F -9.5 °F -1.7 °F 58% 29.70 in 10.0 mi SW 23.0 mph 33.4 mph N/A   Scattered Clouds
5:35 PM 10.4 °F -9.9 °F -1.3 °F 59% 29.68 in 10.0 mi SW 24.2 mph 32.2 mph N/A   Clear
5:55 PM 10.4 °F -9.5 °F -0.6 °F 61% 29.68 in 10.0 mi SW 23.0 mph 31.1 mph N/A   Scattered Clouds
6:15 PM 10.9 °F -8.3 °F -0.0 °F 61% 29.68 in 10.0 mi SW 21.9 mph 31.1 mph N/A   Overcast
6:35 PM 11.3 °F -7.0 °F 0.5 °F 62% 29.68 in 10.0 mi SW 19.6 mph 28.8 mph N/A   Overcast
6:50 PM 11.3 °F -7.9 °F 0.5 °F 62% 29.68 in 10.0 mi SW 21.9 mph 26.5 mph N/A   Mostly Cloudy
7:15 PM 11.7 °F -7.0 °F 1.2 °F 63% 29.66 in 10.0 mi SW 20.7 mph 26.5 mph N/A   Clear
7:35 PM 12.2 °F -6.7 °F 1.8 °F 63% 29.66 in 10.0 mi SW 21.9 mph 26.5 mph N/A   Clear
7:55 PM 13.1 °F -5.5 °F 2.7 °F 63% 29.64 in 10.0 mi SW 21.9 mph 29.9 mph N/A   Scattered Clouds
8:15 PM 13.1 °F -5.9 °F 3.0 °F 64% 29.63 in 10.0 mi WSW 23.0 mph 28.8 mph N/A   Scattered Clouds
8:35 PM 14.2 °F -5.2 °F 4.5 °F 65% 29.62 in 10.0 mi WSW 25.3 mph 34.5 mph N/A   Clear
8:55 PM 14.7 °F -3.4 °F 5.4 °F 66% 29.62 in 10.0 mi WSW 21.9 mph 31.1 mph N/A   Clear
9:15 PM 14.7 °F -3.8 °F 5.9 °F 68% 29.61 in 10.0 mi WSW 23.0 mph 28.8 mph N/A   Clear
9:35 PM 15.4 °F -3.5 °F 6.8 °F 69% 29.61 in 10.0 mi WSW 25.3 mph 32.2 mph N/A   Clear
9:55 PM 15.8 °F -3.4 °F 7.7 °F 70% 29.60 in 10.0 mi WSW 26.5 mph 36.8 mph N/A   Scattered Clouds
10:15 PM 16.2 °F -2.6 °F 7.9 °F 70% 29.60 in 10.0 mi West 25.3 mph 36.8 mph N/A   Mostly Cloudy
10:35 PM 15.8 °F -1.5 °F 6.1 °F 66% 29.60 in 10.0 mi West 20.7 mph 34.5 mph N/A   Scattered Clouds
10:55 PM 15.6 °F -1.3 °F 3.9 °F 60% 29.60 in 10.0 mi West 19.6 mph 31.1 mph N/A   Scattered Clouds
11:15 PM 14.9 °F -3.9 °F 3.9 °F 62% 29.61 in 10.0 mi WNW 24.2 mph 36.8 mph N/A   Scattered Clouds
11:35 PM 13.6 °F -6.6 °F -0.2 °F 54% 29.63 in 10.0 mi WNW 27.6 mph 38.0 mph N/A   Clear
11:55 PM 12.7 °F -6.8 °F -0.2 °F 56% 29.64 in 10.0 mi WNW 24.2 mph 34.5 mph N/A   Clear